Time;durP1;ratioP1;P1;durP2;ratioP2;P2;SDS_P1;SDS_P2;PMS_P1;PMS_P2;Temp;Humidity;BMP_temperature;BMP_pressure;BME280_temperature;BME280_humidity;BME280_pressure;Samples;Min_cycle;Max_cycle;Signal;HPM_P1;HPM_P2
2024/02/11 00:02:03;;;;;;;12.73;5.22;;;;;;;;;;4987417;28;20225;-91
2024/02/11 00:05:09;;;;;;;12.43;5.18;;;;;;;;;;4987188;28;20634;-91
2024/02/11 00:08:14;;;;;;;14.70;6.00;;;;;;;;;;4985450;28;20655;-90
2024/02/11 00:11:21;;;;;;;19.05;6.25;;;;;;;;;;4985148;28;20229;-91
2024/02/11 00:14:28;;;;;;;14.35;5.28;;;;;;;;;;4987989;28;20298;-90
2024/02/11 00:17:34;;;;;;;18.08;6.00;;;;;;;;;;4986057;28;20193;-90
2024/02/11 00:20:40;;;;;;;12.65;5.22;;;;;;;;;;4981341;28;20798;-91
2024/02/11 00:23:45;;;;;;;15.05;5.53;;;;;;;;;;4985570;28;20669;-92
2024/02/11 00:26:51;;;;;;;17.15;6.00;;;;;;;;;;4985424;28;20222;-92
2024/02/11 00:29:57;;;;;;;23.65;5.85;;;;;;;;;;4985323;28;20712;-91
2024/02/11 00:33:05;;;;;;;14.88;6.03;;;;;;;;;;4985394;28;20197;-90
2024/02/11 00:36:10;;;;;;;14.52;5.85;;;;;;;;;;4973709;28;20225;-90
2024/02/11 00:39:16;;;;;;;18.45;6.70;;;;;;;;;;4965670;28;20198;-90
2024/02/11 00:42:21;;;;;;;18.17;6.90;;;;;;;;;;4964664;28;20547;-90
2024/02/11 00:45:29;;;;;;;16.38;5.95;;;;;;;;;;4964856;28;20203;-91
2024/02/11 00:48:35;;;;;;;17.63;6.43;;;;;;;;;;4964974;28;20194;-90
2024/02/11 00:51:40;;;;;;;15.52;5.38;;;;;;;;;;4965542;28;20195;-92
2024/02/11 00:54:45;;;;;;;14.70;5.22;;;;;;;;;;4964319;28;20214;-92
2024/02/11 00:57:50;;;;;;;19.50;5.63;;;;;;;;;;4963810;28;20194;-90
2024/02/11 01:00:55;;;;;;;15.98;5.53;;;;;;;;;;4964886;28;20734;-90
2024/02/11 01:04:02;;;;;;;14.93;5.28;;;;;;;;;;4963797;28;20206;-91
2024/02/11 01:07:08;;;;;;;13.98;5.28;;;;;;;;;;4963957;28;20202;-91
2024/02/11 01:10:14;;;;;;;17.52;5.38;;;;;;;;;;4963746;28;20186;-91
2024/02/11 01:13:19;;;;;;;24.05;5.70;;;;;;;;;;4964390;28;20210;-90
2024/02/11 01:16:24;;;;;;;15.20;5.45;;;;;;;;;;4964720;28;20242;-90
2024/02/11 01:19:31;;;;;;;13.23;4.80;;;;;;;;;;4965967;28;20229;-92
2024/02/11 01:22:38;;;;;;;14.23;5.43;;;;;;;;;;4963592;28;20209;-92
2024/02/11 01:25:44;;;;;;;17.98;5.18;;;;;;;;;;4964061;28;20202;-90
2024/02/11 01:28:48;;;;;;;13.50;4.80;;;;;;;;;;4965391;28;20208;-90
2024/02/11 01:31:54;;;;;;;11.25;4.18;;;;;;;;;;4964468;28;20273;-90
2024/02/11 01:35:00;;;;;;;11.30;4.20;;;;;;;;;;4975045;28;20311;-90
2024/02/11 01:38:06;;;;;;;10.10;4.32;;;;;;;;;;4975530;28;20182;-90
2024/02/11 01:41:11;;;;;;;14.95;5.43;;;;;;;;;;4963342;28;20211;-91
2024/02/11 01:44:16;;;;;;;13.13;5.45;;;;;;;;;;4975143;28;20194;-91
2024/02/11 01:47:22;;;;;;;14.25;5.07;;;;;;;;;;4974332;28;20190;-90
2024/02/11 01:50:31;;;;;;;14.07;4.15;;;;;;;;;;4974642;28;20234;-90
2024/02/11 01:53:37;;;;;;;15.32;4.60;;;;;;;;;;4976560;28;20717;-90
2024/02/11 01:56:43;;;;;;;13.43;4.57;;;;;;;;;;4978946;28;20194;-91
2024/02/11 01:59:48;;;;;;;14.00;4.20;;;;;;;;;;4978674;28;20241;-89
2024/02/11 02:02:57;;;;;;;12.68;4.20;;;;;;;;;;4979455;28;20194;-90
2024/02/11 02:06:04;;;;;;;17.17;4.35;;;;;;;;;;4979196;28;20178;-90
2024/02/11 02:09:10;;;;;;;9.85;3.92;;;;;;;;;;4968660;28;20253;-90
2024/02/11 02:12:17;;;;;;;9.85;4.15;;;;;;;;;;4971056;28;20289;-92
2024/02/11 02:15:24;;;;;;;12.15;4.22;;;;;;;;;;4983418;28;20234;-91
2024/02/11 02:18:34;;;;;;;13.43;4.40;;;;;;;;;;4983543;28;20231;-90
2024/02/11 02:21:46;;;;;;;11.18;3.70;;;;;;;;;;4982622;28;20324;-91
2024/02/11 02:24:52;;;;;;;14.90;3.78;;;;;;;;;;4980383;28;20195;-89
2024/02/11 02:27:57;;;;;;;12.07;3.70;;;;;;;;;;4981696;28;20215;-90
2024/02/11 02:31:02;;;;;;;9.65;3.75;;;;;;;;;;4971059;28;20193;-91
2024/02/11 02:34:07;;;;;;;11.18;3.97;;;;;;;;;;4968863;28;20198;-91
2024/02/11 02:37:14;;;;;;;9.73;3.65;;;;;;;;;;4970365;28;20199;-91
2024/02/11 02:40:24;;;;;;;13.07;3.88;;;;;;;;;;4980904;28;20194;-91
2024/02/11 02:43:32;;;;;;;13.68;3.92;;;;;;;;;;4988752;28;20186;-91
2024/02/11 02:46:37;;;;;;;11.13;3.58;;;;;;;;;;4989231;28;20229;-90
2024/02/11 02:49:45;;;;;;;9.48;4.05;;;;;;;;;;4990617;28;20173;-91
2024/02/11 02:52:52;;;;;;;12.35;3.35;;;;;;;;;;4990719;28;20186;-90
2024/02/11 02:55:57;;;;;;;10.18;3.42;;;;;;;;;;4990322;28;20570;-89
2024/02/11 02:59:05;;;;;;;8.38;3.47;;;;;;;;;;4990736;28;20198;-91
2024/02/11 03:02:12;;;;;;;7.45;3.45;;;;;;;;;;4990346;28;20194;-90
2024/02/11 03:05:17;;;;;;;8.40;3.72;;;;;;;;;;4989031;28;20201;-89
2024/02/11 03:08:23;;;;;;;9.50;3.40;;;;;;;;;;4990685;28;20271;-89
2024/02/11 03:11:28;;;;;;;9.90;3.90;;;;;;;;;;4988987;28;20190;-90
2024/02/11 03:14:34;;;;;;;9.40;3.33;;;;;;;;;;4989657;28;20205;-89
2024/02/11 03:17:41;;;;;;;16.17;3.60;;;;;;;;;;4989799;28;20178;-91
2024/02/11 03:20:46;;;;;;;13.07;3.90;;;;;;;;;;4988096;28;20269;-93
2024/02/11 03:23:53;;;;;;;12.80;3.80;;;;;;;;;;4988712;28;20197;-91
2024/02/11 03:26:59;;;;;;;7.68;3.35;;;;;;;;;;4987507;28;20709;-90
2024/02/11 03:30:05;;;;;;;15.48;3.53;;;;;;;;;;4988029;28;20186;-91
2024/02/11 03:33:14;;;;;;;16.50;4.10;;;;;;;;;;4984512;28;20271;-90
2024/02/11 03:36:19;;;;;;;11.55;3.85;;;;;;;;;;4976974;28;20218;-92
2024/02/11 03:39:25;;;;;;;11.55;3.95;;;;;;;;;;4965801;29;20190;-90
2024/02/11 03:42:30;;;;;;;11.70;4.05;;;;;;;;;;4966694;28;20590;-90
2024/02/11 03:45:35;;;;;;;12.88;3.85;;;;;;;;;;4966627;29;20280;-90
2024/02/11 03:48:41;;;;;;;12.25;4.35;;;;;;;;;;4967927;28;20202;-91
2024/02/11 03:51:48;;;;;;;14.80;3.78;;;;;;;;;;4967187;28;20206;-91
2024/02/11 03:54:56;;;;;;;9.88;3.95;;;;;;;;;;4978031;28;20198;-89
2024/02/11 03:58:04;;;;;;;13.70;3.72;;;;;;;;;;4966347;28;20318;-89
2024/02/11 04:01:09;;;;;;;7.75;3.60;;;;;;;;;;4964199;29;20276;-88
2024/02/11 04:04:16;;;;;;;10.52;4.50;;;;;;;;;;4966701;28;20254;-90
2024/02/11 04:07:21;;;;;;;9.63;4.20;;;;;;;;;;4966587;29;20199;-90
2024/02/11 04:10:36;;;;;;;13.35;3.75;;;;;;;;;;4965825;28;20252;-90
2024/02/11 04:13:41;;;;;;;14.20;4.35;;;;;;;;;;4973653;28;20215;-92
2024/02/11 04:16:52;;;;;;;13.65;3.95;;;;;;;;;;4983024;28;20217;-90
2024/02/11 04:19:57;;;;;;;10.27;3.65;;;;;;;;;;4996538;28;20330;-91
2024/02/11 04:23:03;;;;;;;14.35;3.97;;;;;;;;;;4984734;28;20657;-91
2024/02/11 04:26:14;;;;;;;8.68;3.85;;;;;;;;;;4984767;28;20778;-91
2024/02/11 04:29:19;;;;;;;10.57;5.28;;;;;;;;;;4984438;28;20178;-91
2024/02/11 04:32:25;;;;;;;11.23;3.72;;;;;;;;;;4983239;28;20189;-90
2024/02/11 04:35:33;;;;;;;12.63;4.05;;;;;;;;;;4984744;28;20229;-92
2024/02/11 04:38:38;;;;;;;12.82;4.20;;;;;;;;;;4985514;28;20194;-91
2024/02/11 04:41:46;;;;;;;11.10;3.80;;;;;;;;;;4983515;28;20198;-91
2024/02/11 04:44:51;;;;;;;10.07;4.03;;;;;;;;;;4981078;28;20226;-89
2024/02/11 04:47:59;;;;;;;9.30;3.90;;;;;;;;;;4963078;28;20183;-90
2024/02/11 04:51:07;;;;;;;18.85;5.65;;;;;;;;;;4964385;28;20267;-92
2024/02/11 04:54:12;;;;;;;8.57;4.25;;;;;;;;;;4964059;28;20195;-91
2024/02/11 04:57:19;;;;;;;11.10;4.45;;;;;;;;;;4963299;28;20350;-90
2024/02/11 05:00:27;;;;;;;11.30;3.88;;;;;;;;;;4963361;28;20187;-90
2024/02/11 05:03:32;;;;;;;10.85;4.75;;;;;;;;;;4965785;28;20209;-91
2024/02/11 05:06:40;;;;;;;13.02;4.63;;;;;;;;;;4982013;28;20178;-91
2024/02/11 05:09:45;;;;;;;15.10;5.63;;;;;;;;;;4982766;28;20197;-91
2024/02/11 05:12:52;;;;;;;15.55;4.30;;;;;;;;;;4981832;28;20197;-92
2024/02/11 05:16:01;;;;;;;12.73;3.92;;;;;;;;;;4983058;28;20277;-90
2024/02/11 05:19:08;;;;;;;13.90;4.15;;;;;;;;;;4981723;28;20278;-90
2024/02/11 05:22:13;;;;;;;8.23;3.85;;;;;;;;;;4983421;28;20193;-91
2024/02/11 05:25:20;;;;;;;9.05;4.13;;;;;;;;;;4983665;28;20201;-92
2024/02/11 05:28:27;;;;;;;14.05;5.50;;;;;;;;;;4987327;28;20555;-90
2024/02/11 05:31:32;;;;;;;9.73;4.22;;;;;;;;;;4989248;28;20192;-90
2024/02/11 05:34:39;;;;;;;9.50;3.58;;;;;;;;;;4991645;28;20197;-92
2024/02/11 05:37:46;;;;;;;11.40;3.80;;;;;;;;;;4989394;28;20209;-89
2024/02/11 05:40:50;;;;;;;12.75;4.03;;;;;;;;;;5000965;28;20193;-91
2024/02/11 05:43:56;;;;;;;6.30;3.80;;;;;;;;;;5000495;28;20190;-91
2024/02/11 05:47:01;;;;;;;10.55;3.95;;;;;;;;;;4988712;28;20213;-90
2024/02/11 05:50:08;;;;;;;12.52;4.95;;;;;;;;;;4988645;28;20258;-89
2024/02/11 05:53:13;;;;;;;14.75;4.45;;;;;;;;;;4989494;28;20197;-91
2024/02/11 05:56:19;;;;;;;9.05;4.07;;;;;;;;;;4989366;28;20324;-91
2024/02/11 05:59:26;;;;;;;9.10;3.67;;;;;;;;;;4991433;28;20189;-91
2024/02/11 06:02:31;;;;;;;9.10;4.20;;;;;;;;;;4989898;28;20194;-91
2024/02/11 06:05:37;;;;;;;10.20;4.25;;;;;;;;;;4990288;28;20685;-92
2024/02/11 06:08:42;;;;;;;10.27;4.43;;;;;;;;;;4988800;28;20205;-91
2024/02/11 06:11:48;;;;;;;14.15;4.65;;;;;;;;;;4989456;28;20263;-91
2024/02/11 06:14:54;;;;;;;14.40;4.60;;;;;;;;;;4991317;28;20261;-92
2024/02/11 06:18:01;;;;;;;16.35;4.40;;;;;;;;;;4995456;28;20334;-90
2024/02/11 06:21:06;;;;;;;13.88;4.63;;;;;;;;;;4994697;28;20197;-92
2024/02/11 06:24:13;;;;;;;12.35;4.97;;;;;;;;;;4993428;28;20190;-92
2024/02/11 06:27:18;;;;;;;14.27;4.93;;;;;;;;;;4971544;29;20271;-91
2024/02/11 06:30:24;;;;;;;14.25;5.05;;;;;;;;;;4980060;28;20553;-90
2024/02/11 06:33:29;;;;;;;10.20;4.55;;;;;;;;;;4990819;28;20201;-92
2024/02/11 06:36:37;;;;;;;10.98;4.57;;;;;;;;;;4990434;28;20559;-90
2024/02/11 06:39:44;;;;;;;10.40;4.82;;;;;;;;;;4987882;28;20185;-92
2024/02/11 06:42:50;;;;;;;11.65;4.85;;;;;;;;;;4988188;28;20174;-91
2024/02/11 06:45:57;;;;;;;13.93;5.13;;;;;;;;;;4969601;28;20228;-91
2024/02/11 06:49:02;;;;;;;10.48;4.47;;;;;;;;;;4967928;28;20198;-90
2024/02/11 06:52:09;;;;;;;14.95;5.57;;;;;;;;;;4968349;28;20281;-90
2024/02/11 06:55:15;;;;;;;12.85;5.68;;;;;;;;;;4968531;28;20653;-91
2024/02/11 06:58:21;;;;;;;13.13;5.63;;;;;;;;;;4968909;28;20179;-91
2024/02/11 07:01:27;;;;;;;15.25;5.90;;;;;;;;;;4967629;28;20226;-92
2024/02/11 07:04:32;;;;;;;12.50;4.78;;;;;;;;;;4968088;28;20214;-90
2024/02/11 07:07:37;;;;;;;14.27;5.10;;;;;;;;;;4968080;28;20238;-90
2024/02/11 07:10:43;;;;;;;10.35;5.38;;;;;;;;;;4973610;28;20270;-90
2024/02/11 07:13:48;;;;;;;11.75;4.78;;;;;;;;;;4973025;28;20201;-90
2024/02/11 07:16:58;;;;;;;11.70;4.85;;;;;;;;;;4971964;28;20708;-91
2024/02/11 07:20:04;;;;;;;13.02;4.72;;;;;;;;;;4969751;28;20199;-91
2024/02/11 07:23:10;;;;;;;10.05;4.47;;;;;;;;;;4971514;28;20171;-91
2024/02/11 07:26:16;;;;;;;15.60;4.55;;;;;;;;;;4970560;28;20210;-91
2024/02/11 07:29:25;;;;;;;11.02;5.00;;;;;;;;;;4972713;28;20191;-90
2024/02/11 07:32:32;;;;;;;14.38;5.00;;;;;;;;;;4994234;28;20221;-91
2024/02/11 07:35:38;;;;;;;9.48;5.10;;;;;;;;;;4971269;28;20190;-91
2024/02/11 07:38:43;;;;;;;13.85;5.80;;;;;;;;;;4972205;28;20290;-91
2024/02/11 07:41:48;;;;;;;17.25;5.57;;;;;;;;;;4966786;29;20261;-91
2024/02/11 07:44:53;;;;;;;12.90;5.45;;;;;;;;;;4976678;28;20205;-91
2024/02/11 07:48:00;;;;;;;11.50;5.88;;;;;;;;;;4987910;28;20194;-92
2024/02/11 07:51:07;;;;;;;15.90;6.72;;;;;;;;;;4986690;28;20743;-91
2024/02/11 07:54:13;;;;;;;12.23;5.63;;;;;;;;;;4990963;28;20194;-91
2024/02/11 07:57:23;;;;;;;16.30;7.60;;;;;;;;;;4989949;28;20213;-90
2024/02/11 08:00:31;;;;;;;15.38;6.05;;;;;;;;;;4990220;28;20204;-90
2024/02/11 08:03:38;;;;;;;16.52;6.38;;;;;;;;;;4989720;28;20238;-91
2024/02/11 08:06:43;;;;;;;14.55;6.28;;;;;;;;;;4970193;28;20191;-94
2024/02/11 08:09:48;;;;;;;15.70;5.97;;;;;;;;;;4970903;29;20190;-92
2024/02/11 08:12:54;;;;;;;20.33;7.25;;;;;;;;;;4969855;28;20187;-92
2024/02/11 08:16:00;;;;;;;21.20;8.95;;;;;;;;;;4968388;28;20195;-91
2024/02/11 08:19:08;;;;;;;19.75;8.10;;;;;;;;;;4982131;28;20202;-91
2024/02/11 08:22:13;;;;;;;19.38;8.75;;;;;;;;;;4972241;28;20194;-89
2024/02/11 08:25:20;;;;;;;20.83;8.93;;;;;;;;;;4974116;28;20174;-90
2024/02/11 08:28:26;;;;;;;25.70;11.07;;;;;;;;;;4970699;28;20199;-91
2024/02/11 08:31:31;;;;;;;17.08;8.85;;;;;;;;;;4971325;28;20182;-90
2024/02/11 08:34:41;;;;;;;19.95;9.68;;;;;;;;;;4983471;28;20193;-90
2024/02/11 08:37:48;;;;;;;26.58;10.35;;;;;;;;;;4972633;28;20214;-91
2024/02/11 08:40:54;;;;;;;21.10;10.23;;;;;;;;;;4974728;28;20314;-90
2024/02/11 08:44:00;;;;;;;25.70;10.82;;;;;;;;;;4972758;28;20193;-92
2024/02/11 08:47:08;;;;;;;16.77;8.63;;;;;;;;;;4969607;28;20191;-89
2024/02/11 08:50:16;;;;;;;26.85;11.40;;;;;;;;;;4970185;28;20260;-92
2024/02/11 08:53:21;;;;;;;16.63;8.40;;;;;;;;;;4969504;28;20194;-90
2024/02/11 08:56:26;;;;;;;7.35;3.92;;;;;;;;;;4970583;28;20234;-92
2024/02/11 08:59:31;;;;;;;4.32;2.20;;;;;;;;;;4968043;28;20178;-91
2024/02/11 09:02:40;;;;;;;3.75;2.00;;;;;;;;;;4980573;28;20298;-93
2024/02/11 09:05:48;;;;;;;2.92;1.80;;;;;;;;;;4971612;28;20207;-91
2024/02/11 09:08:54;;;;;;;3.10;2.13;;;;;;;;;;4970142;28;20322;-91
2024/02/11 09:11:59;;;;;;;2.97;2.03;;;;;;;;;;4968291;28;20199;-89
2024/02/11 09:15:15;;;;;;;2.15;1.55;;;;;;;;;;4969112;28;20201;-92
2024/02/11 09:18:21;;;;;;;1.73;1.40;;;;;;;;;;4968522;28;20210;-91
2024/02/11 09:21:28;;;;;;;2.10;1.35;;;;;;;;;;4969700;28;20290;-91
2024/02/11 09:24:34;;;;;;;0.63;0.63;;;;;;;;;;4970412;28;20206;-92
2024/02/11 09:27:39;;;;;;;0.30;0.30;;;;;;;;;;4969839;29;20207;-92
2024/02/11 09:30:45;;;;;;;0.30;0.30;;;;;;;;;;4970412;28;20214;-90
2024/02/11 09:33:50;;;;;;;0.43;0.43;;;;;;;;;;4980905;28;20182;-91
2024/02/11 09:36:56;;;;;;;0.57;0.57;;;;;;;;;;4975504;28;20280;-90
2024/02/11 09:40:02;;;;;;;0.30;0.30;;;;;;;;;;4989410;28;20197;-91
2024/02/11 09:43:08;;;;;;;0.40;0.40;;;;;;;;;;4989100;28;20659;-91
2024/02/11 09:46:27;;;;;;;0.50;0.50;;;;;;;;;;4992689;28;20182;-93
2024/02/11 09:49:33;;;;;;;0.65;0.65;;;;;;;;;;4989045;28;20186;-91
2024/02/11 09:52:40;;;;;;;0.40;0.40;;;;;;;;;;4991433;28;20225;-91
2024/02/11 09:55:45;;;;;;;0.32;0.32;;;;;;;;;;4989146;28;20269;-92
2024/02/11 09:58:52;;;;;;;0.57;0.57;;;;;;;;;;4988591;28;20205;-92
2024/02/11 10:01:57;;;;;;;0.30;0.30;;;;;;;;;;4968826;28;20198;-92
2024/02/11 10:05:09;;;;;;;0.52;0.52;;;;;;;;;;4957236;28;20195;-91
2024/02/11 10:08:21;;;;;;;0.57;0.40;;;;;;;;;;4967815;28;20191;-93
2024/02/11 10:11:26;;;;;;;0.30;0.30;;;;;;;;;;4983725;28;20680;-95
2024/02/11 10:14:34;;;;;;;0.50;0.50;;;;;;;;;;4990854;28;20564;-92
2024/02/11 10:17:41;;;;;;;0.45;0.45;;;;;;;;;;4989125;28;20237;-92
2024/02/11 10:20:47;;;;;;;0.40;0.40;;;;;;;;;;4989144;28;20218;-91
2024/02/11 10:23:54;;;;;;;0.38;0.38;;;;;;;;;;4988562;28;20205;-91
2024/02/11 10:26:59;;;;;;;0.40;0.40;;;;;;;;;;4987770;28;20703;-91
2024/02/11 10:30:09;;;;;;;0.40;0.40;;;;;;;;;;4988070;28;20201;-92
2024/02/11 10:33:15;;;;;;;0.30;0.30;;;;;;;;;;4993739;28;20218;-91
2024/02/11 10:36:20;;;;;;;0.47;0.47;;;;;;;;;;4984562;28;20190;-91
2024/02/11 10:39:37;;;;;;;0.88;0.65;;;;;;;;;;4987661;28;20214;-90
2024/02/11 10:46:03;;;;;;;0.43;0.40;;;;;;;;;;4996311;28;20549;-89
2024/02/11 10:49:11;;;;;;;1.25;0.68;;;;;;;;;;4997421;28;20302;-92
2024/02/11 10:52:21;;;;;;;0.75;0.70;;;;;;;;;;4988565;28;20210;-92
2024/02/11 10:55:32;;;;;;;0.50;0.50;;;;;;;;;;5002942;28;20205;-91
2024/02/11 10:58:42;;;;;;;0.40;0.40;;;;;;;;;;4997212;28;20269;-90
2024/02/11 11:01:50;;;;;;;0.30;0.30;;;;;;;;;;4992341;28;20213;-90
2024/02/11 11:04:58;;;;;;;0.30;0.30;;;;;;;;;;4993211;28;20226;-90
2024/02/11 11:08:12;;;;;;;0.40;0.40;;;;;;;;;;4997598;28;20201;-90
2024/02/11 11:11:28;;;;;;;0.52;0.52;;;;;;;;;;4988023;28;20239;-90
2024/02/11 11:14:34;;;;;;;0.30;0.30;;;;;;;;;;4986790;28;20190;-90
2024/02/11 11:17:40;;;;;;;0.30;0.30;;;;;;;;;;4982633;28;20509;-92
2024/02/11 11:20:53;;;;;;;0.50;0.50;;;;;;;;;;4990058;28;20190;-89
2024/02/11 11:24:01;;;;;;;0.30;0.30;;;;;;;;;;4992824;28;20213;-91
2024/02/11 11:27:14;;;;;;;0.30;0.30;;;;;;;;;;4994021;28;20301;-92
2024/02/11 11:30:21;;;;;;;0.40;0.40;;;;;;;;;;4994336;28;20242;-92
2024/02/11 11:33:34;;;;;;;0.30;0.30;;;;;;;;;;4992402;28;20259;-91
2024/02/11 11:36:40;;;;;;;0.50;0.50;;;;;;;;;;4994215;28;20194;-90
2024/02/11 11:39:48;;;;;;;0.30;0.30;;;;;;;;;;4995383;28;20209;-90
2024/02/11 11:42:56;;;;;;;0.30;0.30;;;;;;;;;;4994701;28;20208;-91
2024/02/11 11:46:07;;;;;;;0.30;0.30;;;;;;;;;;4993753;28;20656;-91
2024/02/11 11:49:13;;;;;;;0.30;0.30;;;;;;;;;;4996216;28;20205;-91
2024/02/11 11:52:20;;;;;;;0.80;0.70;;;;;;;;;;4993041;28;20267;-93
2024/02/11 11:55:32;;;;;;;0.30;0.30;;;;;;;;;;4994214;28;20186;-91
2024/02/11 11:58:53;;;;;;;0.33;0.33;;;;;;;;;;4995180;28;20261;-92
2024/02/11 12:02:16;;;;;;;1.03;0.93;;;;;;;;;;4995124;28;20186;-90
2024/02/11 12:05:26;;;;;;;0.30;0.30;;;;;;;;;;5005418;28;20201;-92
2024/02/11 12:08:32;;;;;;;3.03;1.13;;;;;;;;;;4994173;28;20190;-91
2024/02/11 12:11:39;;;;;;;0.30;0.30;;;;;;;;;;4995999;28;20221;-92
2024/02/11 12:14:45;;;;;;;0.30;0.30;;;;;;;;;;4984839;28;20202;-89
2024/02/11 12:17:52;;;;;;;0.40;0.40;;;;;;;;;;4988252;28;20225;-90
2024/02/11 12:21:06;;;;;;;0.30;0.30;;;;;;;;;;4994340;28;20194;-90
2024/02/11 12:27:33;;;;;;;0.30;0.30;;;;;;;;;;5006625;28;20271;-91
2024/02/11 12:30:40;;;;;;;0.30;0.30;;;;;;;;;;4994878;28;20241;-91
2024/02/11 12:37:14;;;;;;;0.30;0.30;;;;;;;;;;4994624;28;20221;-90
2024/02/11 12:58:03;;;;;;;0.75;0.60;;;;;;;;;;5511857;23;20234;-90
2024/02/11 13:01:11;;;;;;;0.30;0.30;;;;;;;;;;5014810;28;20173;-89
2024/02/11 13:04:18;;;;;;;0.70;0.70;;;;;;;;;;5001788;28;20447;-90
2024/02/11 13:07:26;;;;;;;0.75;0.75;;;;;;;;;;4996926;28;20251;-91
2024/02/11 13:10:36;;;;;;;4.78;1.05;;;;;;;;;;4997180;28;20689;-92
2024/02/11 13:34:31;;;;;;;0.30;0.30;;;;;;;;;;5031008;23;20272;-93
2024/02/11 13:41:04;;;;;;;11.50;0.95;;;;;;;;;;4995715;28;20197;-90
2024/02/11 13:44:12;;;;;;;0.40;0.40;;;;;;;;;;4992687;28;20212;-93
2024/02/11 13:47:18;;;;;;;1.45;0.82;;;;;;;;;;4990637;28;20201;-92
2024/02/11 13:50:29;;;;;;;0.70;0.70;;;;;;;;;;4998524;28;20162;-92
2024/02/11 13:53:40;;;;;;;0.63;0.50;;;;;;;;;;4989891;28;20202;-89
2024/02/11 13:56:45;;;;;;;0.98;0.88;;;;;;;;;;4990900;28;20202;-92
2024/02/11 13:59:52;;;;;;;0.50;0.50;;;;;;;;;;4979983;28;20725;-91
2024/02/11 14:02:58;;;;;;;0.60;0.60;;;;;;;;;;4973464;28;20285;-92
2024/02/11 14:06:03;;;;;;;0.52;0.52;;;;;;;;;;4970921;28;20190;-91
2024/02/11 14:09:11;;;;;;;0.80;0.80;;;;;;;;;;4985320;28;20210;-93
2024/02/11 14:12:16;;;;;;;0.40;0.40;;;;;;;;;;4988406;28;20330;-90
2024/02/11 14:15:22;;;;;;;1.52;1.15;;;;;;;;;;4988409;28;20285;-90
2024/02/11 14:18:28;;;;;;;0.38;0.38;;;;;;;;;;4978713;28;20233;-89
2024/02/11 14:21:35;;;;;;;0.55;0.55;;;;;;;;;;4969233;29;20254;-91
2024/02/11 14:24:42;;;;;;;0.70;0.70;;;;;;;;;;4979179;28;20197;-91
2024/02/11 14:27:53;;;;;;;1.15;0.82;;;;;;;;;;4991654;28;20206;-91
2024/02/11 14:31:16;;;;;;;0.40;0.40;;;;;;;;;;4973799;28;20222;-94
2024/02/11 14:34:29;;;;;;;0.45;0.45;;;;;;;;;;5001188;28;20209;-90
2024/02/11 14:37:34;;;;;;;0.85;0.75;;;;;;;;;;4985179;28;20687;-90
2024/02/11 14:40:41;;;;;;;0.50;0.50;;;;;;;;;;4978451;28;20210;-93
2024/02/11 14:43:47;;;;;;;0.40;0.40;;;;;;;;;;4989837;28;20197;-92
2024/02/11 14:46:53;;;;;;;0.55;0.55;;;;;;;;;;4992401;28;20201;-92
2024/02/11 14:49:59;;;;;;;0.50;0.50;;;;;;;;;;4990690;28;20202;-91
2024/02/11 14:53:05;;;;;;;0.40;0.40;;;;;;;;;;4989000;28;20283;-88
2024/02/11 14:56:13;;;;;;;0.70;0.70;;;;;;;;;;4989555;28;20209;-90
2024/02/11 14:59:19;;;;;;;3.92;1.02;;;;;;;;;;4989056;28;20261;-91
2024/02/11 15:02:26;;;;;;;0.70;0.70;;;;;;;;;;4990309;28;20201;-92
2024/02/11 15:05:32;;;;;;;0.77;0.77;;;;;;;;;;4989062;28;20268;-90
2024/02/11 15:08:38;;;;;;;0.40;0.40;;;;;;;;;;4983432;28;20186;-89
2024/02/11 15:11:46;;;;;;;0.55;0.55;;;;;;;;;;4987877;28;20245;-92
2024/02/11 15:14:51;;;;;;;0.65;0.65;;;;;;;;;;4987625;28;20217;-90
2024/02/11 15:17:56;;;;;;;5.30;1.92;;;;;;;;;;4983398;28;20587;-89
2024/02/11 15:21:01;;;;;;;0.50;0.50;;;;;;;;;;4979819;28;20239;-90
2024/02/11 15:24:10;;;;;;;4.35;1.30;;;;;;;;;;4983998;28;20274;-89
2024/02/11 15:27:17;;;;;;;0.73;0.73;;;;;;;;;;4984394;28;20214;-91
2024/02/11 15:30:25;;;;;;;0.57;0.57;;;;;;;;;;4985319;28;20190;-92
2024/02/11 15:33:30;;;;;;;0.70;0.70;;;;;;;;;;4983557;28;20198;-92
2024/02/11 15:36:35;;;;;;;0.40;0.40;;;;;;;;;;4982029;28;20225;-91
2024/02/11 15:39:40;;;;;;;0.43;0.43;;;;;;;;;;4992191;28;20294;-91
2024/02/11 15:42:47;;;;;;;0.75;0.75;;;;;;;;;;4971308;28;20194;-89
2024/02/11 15:45:52;;;;;;;0.65;0.63;;;;;;;;;;4967401;29;20190;-91
2024/02/11 15:48:57;;;;;;;0.40;0.40;;;;;;;;;;4985268;28;20268;-90
2024/02/11 15:52:06;;;;;;;1.52;1.17;;;;;;;;;;4985452;28;20716;-94
2024/02/11 15:55:12;;;;;;;0.93;0.80;;;;;;;;;;4985396;28;20279;-91
2024/02/11 15:58:19;;;;;;;1.88;0.85;;;;;;;;;;4986275;28;20333;-90
2024/02/11 16:01:24;;;;;;;0.50;0.50;;;;;;;;;;4986541;28;20283;-92
2024/02/11 16:04:29;;;;;;;0.40;0.40;;;;;;;;;;4969054;28;20279;-89
2024/02/11 16:07:35;;;;;;;0.40;0.40;;;;;;;;;;4968540;29;20190;-92
2024/02/11 16:10:40;;;;;;;1.40;0.73;;;;;;;;;;4974945;28;20275;-90
2024/02/11 16:13:47;;;;;;;1.05;1.05;;;;;;;;;;4965073;28;20191;-92
2024/02/11 16:16:54;;;;;;;0.88;0.88;;;;;;;;;;4969191;29;20214;-92
2024/02/11 16:23:22;;;;;;;1.05;0.95;;;;;;;;;;4988971;28;20194;-92
2024/02/11 16:26:34;;;;;;;0.75;0.68;;;;;;;;;;4993121;28;20201;-91
2024/02/11 16:29:43;;;;;;;0.63;0.63;;;;;;;;;;4990779;28;20263;-92
2024/02/11 16:32:49;;;;;;;1.02;0.95;;;;;;;;;;4994471;28;20230;-91
2024/02/11 16:35:55;;;;;;;0.73;0.73;;;;;;;;;;4983915;28;20186;-93
2024/02/11 16:39:08;;;;;;;0.88;0.88;;;;;;;;;;4981673;28;20242;-92
2024/02/11 16:42:20;;;;;;;0.50;0.50;;;;;;;;;;4971744;28;20276;-89
2024/02/11 16:45:28;;;;;;;0.70;0.70;;;;;;;;;;4968319;28;20187;-92
2024/02/11 16:48:35;;;;;;;0.70;0.70;;;;;;;;;;4968659;29;20800;-91
2024/02/11 16:51:41;;;;;;;0.63;0.63;;;;;;;;;;4970629;29;20194;-92
2024/02/11 16:54:46;;;;;;;2.35;1.10;;;;;;;;;;4968702;29;20194;-89
2024/02/11 16:58:04;;;;;;;1.25;0.68;;;;;;;;;;4973159;29;20196;-90
2024/02/11 17:01:16;;;;;;;0.40;0.40;;;;;;;;;;4967290;28;20278;-91
2024/02/11 17:04:21;;;;;;;1.65;0.88;;;;;;;;;;4977602;28;20194;-92
2024/02/11 17:07:28;;;;;;;0.88;0.85;;;;;;;;;;4979348;28;20191;-90
2024/02/11 17:10:36;;;;;;;2.60;1.05;;;;;;;;;;4964792;28;20202;-91
2024/02/11 17:13:43;;;;;;;0.93;0.93;;;;;;;;;;4964634;29;20721;-90
2024/02/11 17:16:50;;;;;;;2.50;1.77;;;;;;;;;;4964318;28;20214;-89
2024/02/11 17:19:55;;;;;;;0.90;0.80;;;;;;;;;;4964357;29;20347;-90
2024/02/11 17:23:00;;;;;;;1.67;1.02;;;;;;;;;;4968281;28;20198;-92
2024/02/11 17:26:10;;;;;;;0.63;0.60;;;;;;;;;;4987197;28;20186;-93
2024/02/11 17:29:17;;;;;;;0.93;0.88;;;;;;;;;;4976625;28;20198;-90
2024/02/11 17:32:24;;;;;;;0.40;0.40;;;;;;;;;;4967699;28;20189;-91
2024/02/11 17:35:30;;;;;;;1.35;0.55;;;;;;;;;;4991177;28;20201;-89
2024/02/11 17:38:36;;;;;;;0.82;0.82;;;;;;;;;;4987890;28;20233;-90
2024/02/11 17:41:43;;;;;;;0.50;0.50;;;;;;;;;;4983067;28;20196;-92
2024/02/11 17:44:50;;;;;;;0.70;0.70;;;;;;;;;;4982960;28;20325;-89
2024/02/11 17:47:58;;;;;;;3.83;1.55;;;;;;;;;;4982920;28;20261;-92
2024/02/11 17:51:03;;;;;;;1.27;1.05;;;;;;;;;;4987266;28;20601;-90
2024/02/11 17:54:10;;;;;;;1.27;1.13;;;;;;;;;;4984932;28;20197;-94
2024/02/11 17:57:15;;;;;;;1.05;0.95;;;;;;;;;;4965067;28;20183;-92
2024/02/11 18:00:21;;;;;;;15.80;1.17;;;;;;;;;;4965525;28;20218;-91
2024/02/11 18:03:32;;;;;;;0.60;0.60;;;;;;;;;;4965124;29;20194;-92
2024/02/11 18:06:42;;;;;;;0.85;0.77;;;;;;;;;;4967715;28;20203;-92
2024/02/11 18:09:48;;;;;;;0.95;0.90;;;;;;;;;;4967877;28;20199;-91
2024/02/11 18:12:53;;;;;;;0.75;0.75;;;;;;;;;;4965212;28;20191;-91
2024/02/11 18:15:59;;;;;;;2.55;0.85;;;;;;;;;;4963053;28;20198;-89
2024/02/11 18:19:12;;;;;;;0.85;0.85;;;;;;;;;;4966632;28;20309;-93
2024/02/11 18:22:19;;;;;;;3.33;1.10;;;;;;;;;;4966996;29;20203;-91
2024/02/11 18:25:24;;;;;;;1.55;1.45;;;;;;;;;;4968495;28;20186;-92
2024/02/11 18:28:30;;;;;;;0.52;0.52;;;;;;;;;;4985850;28;20251;-89
2024/02/11 18:31:37;;;;;;;1.15;1.05;;;;;;;;;;4985400;28;20213;-92
2024/02/11 18:34:46;;;;;;;0.60;0.60;;;;;;;;;;4986259;28;20225;-91
2024/02/11 18:37:56;;;;;;;1.48;1.13;;;;;;;;;;4992543;28;20229;-92
2024/02/11 18:41:07;;;;;;;4.40;1.52;;;;;;;;;;4986804;28;20225;-92
2024/02/11 18:44:20;;;;;;;1.05;0.85;;;;;;;;;;4991841;28;20209;-91
2024/02/11 18:47:25;;;;;;;1.45;1.35;;;;;;;;;;4984512;28;20204;-90
2024/02/11 18:50:32;;;;;;;1.38;0.70;;;;;;;;;;4992997;28;20661;-91
2024/02/11 18:53:38;;;;;;;1.85;1.02;;;;;;;;;;4990344;28;20190;-91
2024/02/11 18:56:44;;;;;;;1.38;1.10;;;;;;;;;;4987593;28;20201;-91
2024/02/11 18:59:50;;;;;;;0.40;0.40;;;;;;;;;;4989492;28;20233;-92
2024/02/11 19:02:55;;;;;;;0.73;0.73;;;;;;;;;;4968455;29;20203;-90
2024/02/11 19:06:02;;;;;;;0.93;0.88;;;;;;;;;;4978105;28;20209;-89
2024/02/11 19:09:08;;;;;;;0.43;0.43;;;;;;;;;;4969186;29;20238;-91
2024/02/11 19:12:13;;;;;;;1.02;0.90;;;;;;;;;;4977991;28;20202;-91
2024/02/11 19:15:19;;;;;;;0.75;0.75;;;;;;;;;;4980186;28;20198;-92
2024/02/11 19:18:24;;;;;;;0.88;0.88;;;;;;;;;;4967959;29;20186;-89
2024/02/11 19:21:31;;;;;;;2.88;0.88;;;;;;;;;;4986246;28;20221;-91
2024/02/11 19:24:40;;;;;;;0.57;0.57;;;;;;;;;;4986997;28;20186;-91
2024/02/11 19:27:46;;;;;;;0.93;0.90;;;;;;;;;;4987246;28;20201;-91
2024/02/11 19:30:51;;;;;;;2.33;0.65;;;;;;;;;;4986833;28;20190;-90